sensor_id;sensor_type;location;lat;lon;timestamp;temperature;humidity
14188;DHT22;7175;51.978;5.330;2022-11-20T00:01:12;-1.30;99.90
14188;DHT22;7175;51.978;5.330;2022-11-20T00:03:41;-1.30;99.90
14188;DHT22;7175;51.978;5.330;2022-11-20T00:06:11;-1.30;99.90
14188;DHT22;7175;51.978;5.330;2022-11-20T00:08:40;-1.40;99.90
14188;DHT22;7175;51.978;5.330;2022-11-20T00:11:09;-1.40;99.90
14188;DHT22;7175;51.978;5.330;2022-11-20T00:13:43;-1.40;99.90
14188;DHT22;7175;51.978;5.330;2022-11-20T00:16:13;-1.40;99.90
14188;DHT22;7175;51.978;5.330;2022-11-20T00:18:42;-1.40;99.90
14188;DHT22;7175;51.978;5.330;2022-11-20T00:21:12;-1.40;99.90
14188;DHT22;7175;51.978;5.330;2022-11-20T00:23:41;-1.30;99.90
14188;DHT22;7175;51.978;5.330;2022-11-20T00:26:11;-1.40;99.90
14188;DHT22;7175;51.978;5.330;2022-11-20T00:28:40;-1.40;99.90
14188;DHT22;7175;51.978;5.330;2022-11-20T00:31:11;-1.40;99.90
14188;DHT22;7175;51.978;5.330;2022-11-20T00:33:40;-1.40;99.90
14188;DHT22;7175;51.978;5.330;2022-11-20T00:36:10;-1.50;99.90
14188;DHT22;7175;51.978;5.330;2022-11-20T00:38:38;-1.50;99.90
14188;DHT22;7175;51.978;5.330;2022-11-20T00:41:08;-1.50;99.90
14188;DHT22;7175;51.978;5.330;2022-11-20T00:43:37;-1.50;99.90
14188;DHT22;7175;51.978;5.330;2022-11-20T00:46:06;-1.50;99.90
14188;DHT22;7175;51.978;5.330;2022-11-20T00:48:36;-1.50;99.90
14188;DHT22;7175;51.978;5.330;2022-11-20T00:51:05;-1.60;99.90
14188;DHT22;7175;51.978;5.330;2022-11-20T00:53:33;-1.60;99.90
14188;DHT22;7175;51.978;5.330;2022-11-20T00:56:03;-1.70;99.90
14188;DHT22;7175;51.978;5.330;2022-11-20T00:58:33;-1.70;99.90
14188;DHT22;7175;51.978;5.330;2022-11-20T01:01:02;-1.70;99.90
14188;DHT22;7175;51.978;5.330;2022-11-20T01:03:32;-1.70;99.90
14188;DHT22;7175;51.978;5.330;2022-11-20T01:06:03;-1.70;99.90
14188;DHT22;7175;51.978;5.330;2022-11-20T01:08:32;-1.70;99.90
14188;DHT22;7175;51.978;5.330;2022-11-20T01:11:01;-1.70;99.90
14188;DHT22;7175;51.978;5.330;2022-11-20T01:13:30;-1.70;99.90
14188;DHT22;7175;51.978;5.330;2022-11-20T01:16:06;-1.70;99.90
14188;DHT22;7175;51.978;5.330;2022-11-20T01:18:35;-1.70;99.90
14188;DHT22;7175;51.978;5.330;2022-11-20T01:21:07;-1.70;99.90
14188;DHT22;7175;51.978;5.330;2022-11-20T01:23:37;-1.70;99.90
14188;DHT22;7175;51.978;5.330;2022-11-20T01:26:07;-1.90;99.90
14188;DHT22;7175;51.978;5.330;2022-11-20T01:28:36;-1.80;99.90
14188;DHT22;7175;51.978;5.330;2022-11-20T01:31:11;-1.90;99.90
14188;DHT22;7175;51.978;5.330;2022-11-20T01:33:40;-1.80;99.90
14188;DHT22;7175;51.978;5.330;2022-11-20T01:36:11;-1.80;99.90
14188;DHT22;7175;51.978;5.330;2022-11-20T01:38:39;-1.80;99.90
14188;DHT22;7175;51.978;5.330;2022-11-20T01:41:09;-2.00;99.90
14188;DHT22;7175;51.978;5.330;2022-11-20T01:43:37;-2.00;99.90
14188;DHT22;7175;51.978;5.330;2022-11-20T01:46:12;-1.90;99.90
14188;DHT22;7175;51.978;5.330;2022-11-20T01:48:45;-2.00;99.90
14188;DHT22;7175;51.978;5.330;2022-11-20T01:51:21;-2.00;99.90
14188;DHT22;7175;51.978;5.330;2022-11-20T01:53:53;-2.00;99.90
14188;DHT22;7175;51.978;5.330;2022-11-20T01:56:22;-2.00;99.90
14188;DHT22;7175;51.978;5.330;2022-11-20T01:58:54;-2.00;99.90
14188;DHT22;7175;51.978;5.330;2022-11-20T02:01:23;-2.20;99.90
14188;DHT22;7175;51.978;5.330;2022-11-20T02:03:52;-2.20;99.90
14188;DHT22;7175;51.978;5.330;2022-11-20T02:06:25;-2.20;99.90
14188;DHT22;7175;51.978;5.330;2022-11-20T02:08:54;-2.20;99.90
14188;DHT22;7175;51.978;5.330;2022-11-20T02:11:22;-2.20;99.90
14188;DHT22;7175;51.978;5.330;2022-11-20T02:13:50;-2.20;99.90
14188;DHT22;7175;51.978;5.330;2022-11-20T02:16:21;-2.20;99.90
14188;DHT22;7175;51.978;5.330;2022-11-20T02:18:51;-2.20;99.90
14188;DHT22;7175;51.978;5.330;2022-11-20T02:21:30;-2.20;99.90
14188;DHT22;7175;51.978;5.330;2022-11-20T02:24:04;-2.20;99.90
14188;DHT22;7175;51.978;5.330;2022-11-20T02:26:35;-2.30;99.90
14188;DHT22;7175;51.978;5.330;2022-11-20T02:29:06;-2.30;99.90
14188;DHT22;7175;51.978;5.330;2022-11-20T02:31:37;-2.30;99.90
14188;DHT22;7175;51.978;5.330;2022-11-20T02:34:06;-2.30;99.90
14188;DHT22;7175;51.978;5.330;2022-11-20T02:36:35;-2.30;99.90
14188;DHT22;7175;51.978;5.330;2022-11-20T02:39:05;-2.30;99.90
14188;DHT22;7175;51.978;5.330;2022-11-20T02:41:36;-2.20;99.90
14188;DHT22;7175;51.978;5.330;2022-11-20T02:44:05;-2.20;99.90
14188;DHT22;7175;51.978;5.330;2022-11-20T02:46:33;-2.20;99.90
14188;DHT22;7175;51.978;5.330;2022-11-20T02:49:02;-2.20;99.90
14188;DHT22;7175;51.978;5.330;2022-11-20T02:51:31;-2.20;99.90
14188;DHT22;7175;51.978;5.330;2022-11-20T02:53:59;-2.20;99.90
14188;DHT22;7175;51.978;5.330;2022-11-20T02:56:29;-2.30;99.90
14188;DHT22;7175;51.978;5.330;2022-11-20T02:58:57;-2.30;99.90
14188;DHT22;7175;51.978;5.330;2022-11-20T03:01:25;-2.40;99.90
14188;DHT22;7175;51.978;5.330;2022-11-20T03:03:54;-2.50;99.90
14188;DHT22;7175;51.978;5.330;2022-11-20T03:06:24;-2.50;99.90
14188;DHT22;7175;51.978;5.330;2022-11-20T03:08:54;-2.50;99.90
14188;DHT22;7175;51.978;5.330;2022-11-20T03:11:23;-2.40;99.90
14188;DHT22;7175;51.978;5.330;2022-11-20T03:13:53;-2.40;99.90
14188;DHT22;7175;51.978;5.330;2022-11-20T03:16:23;-2.30;99.90
14188;DHT22;7175;51.978;5.330;2022-11-20T03:18:52;-2.30;99.90
14188;DHT22;7175;51.978;5.330;2022-11-20T03:21:20;-2.30;99.90
14188;DHT22;7175;51.978;5.330;2022-11-20T03:23:48;-2.30;99.90
14188;DHT22;7175;51.978;5.330;2022-11-20T03:26:18;-2.40;99.90
14188;DHT22;7175;51.978;5.330;2022-11-20T03:28:48;-2.40;99.90
14188;DHT22;7175;51.978;5.330;2022-11-20T03:31:19;-2.40;99.90
14188;DHT22;7175;51.978;5.330;2022-11-20T03:33:48;-2.40;99.90
14188;DHT22;7175;51.978;5.330;2022-11-20T03:36:18;-2.50;99.90
14188;DHT22;7175;51.978;5.330;2022-11-20T03:38:47;-2.50;99.90
14188;DHT22;7175;51.978;5.330;2022-11-20T03:41:18;-2.50;99.90
14188;DHT22;7175;51.978;5.330;2022-11-20T03:43:48;-2.40;99.90
14188;DHT22;7175;51.978;5.330;2022-11-20T03:46:18;-2.40;99.90
14188;DHT22;7175;51.978;5.330;2022-11-20T03:48:46;-2.50;99.90
14188;DHT22;7175;51.978;5.330;2022-11-20T03:51:19;-2.60;99.90
14188;DHT22;7175;51.978;5.330;2022-11-20T03:53:49;-2.60;99.90
14188;DHT22;7175;51.978;5.330;2022-11-20T03:56:21;-2.70;99.90
14188;DHT22;7175;51.978;5.330;2022-11-20T03:58:50;-2.70;99.90
14188;DHT22;7175;51.978;5.330;2022-11-20T04:01:21;-2.70;99.90
14188;DHT22;7175;51.978;5.330;2022-11-20T04:03:51;-2.60;99.90
14188;DHT22;7175;51.978;5.330;2022-11-20T04:06:21;-2.70;99.90
14188;DHT22;7175;51.978;5.330;2022-11-20T04:08:49;-2.60;99.90
14188;DHT22;7175;51.978;5.330;2022-11-20T04:11:21;-2.60;99.90
14188;DHT22;7175;51.978;5.330;2022-11-20T04:13:53;-2.70;99.90
14188;DHT22;7175;51.978;5.330;2022-11-20T04:16:24;-2.70;99.90
14188;DHT22;7175;51.978;5.330;2022-11-20T04:18:53;-2.70;99.90
14188;DHT22;7175;51.978;5.330;2022-11-20T04:21:22;-2.80;99.90
14188;DHT22;7175;51.978;5.330;2022-11-20T04:23:52;-2.70;99.90
14188;DHT22;7175;51.978;5.330;2022-11-20T04:26:21;-2.70;99.90
14188;DHT22;7175;51.978;5.330;2022-11-20T04:28:50;-2.70;99.90
14188;DHT22;7175;51.978;5.330;2022-11-20T04:31:20;-2.70;99.90
14188;DHT22;7175;51.978;5.330;2022-11-20T04:33:50;-2.70;99.90
14188;DHT22;7175;51.978;5.330;2022-11-20T04:36:19;-2.70;99.90
14188;DHT22;7175;51.978;5.330;2022-11-20T04:38:51;-2.70;99.90
14188;DHT22;7175;51.978;5.330;2022-11-20T04:41:24;-2.80;99.90
14188;DHT22;7175;51.978;5.330;2022-11-20T04:43:55;-2.80;99.90
14188;DHT22;7175;51.978;5.330;2022-11-20T04:46:27;-2.90;99.90
14188;DHT22;7175;51.978;5.330;2022-11-20T04:48:57;-2.70;99.90
14188;DHT22;7175;51.978;5.330;2022-11-20T04:51:25;-2.80;99.90
14188;DHT22;7175;51.978;5.330;2022-11-20T04:53:54;-2.90;99.90
14188;DHT22;7175;51.978;5.330;2022-11-20T04:56:22;-2.90;99.90
14188;DHT22;7175;51.978;5.330;2022-11-20T04:58:51;-3.00;99.90
14188;DHT22;7175;51.978;5.330;2022-11-20T05:01:20;-3.10;99.90
14188;DHT22;7175;51.978;5.330;2022-11-20T05:03:49;-3.00;99.90
14188;DHT22;7175;51.978;5.330;2022-11-20T05:06:22;-2.90;99.90
14188;DHT22;7175;51.978;5.330;2022-11-20T05:08:50;-3.00;99.90
14188;DHT22;7175;51.978;5.330;2022-11-20T05:11:20;-3.00;99.90
14188;DHT22;7175;51.978;5.330;2022-11-20T05:13:50;-3.10;99.90
14188;DHT22;7175;51.978;5.330;2022-11-20T05:16:20;-3.10;99.90
14188;DHT22;7175;51.978;5.330;2022-11-20T05:18:51;-3.00;99.90
14188;DHT22;7175;51.978;5.330;2022-11-20T05:21:21;-2.90;99.90
14188;DHT22;7175;51.978;5.330;2022-11-20T05:23:49;-2.90;99.90
14188;DHT22;7175;51.978;5.330;2022-11-20T05:26:19;-2.90;99.90
14188;DHT22;7175;51.978;5.330;2022-11-20T05:28:48;-2.90;99.90
14188;DHT22;7175;51.978;5.330;2022-11-20T05:31:17;-3.00;99.90
14188;DHT22;7175;51.978;5.330;2022-11-20T05:33:53;-3.00;99.90
14188;DHT22;7175;51.978;5.330;2022-11-20T05:36:23;-3.00;99.90
14188;DHT22;7175;51.978;5.330;2022-11-20T05:38:52;-3.00;99.90
14188;DHT22;7175;51.978;5.330;2022-11-20T05:41:27;-3.00;99.90
14188;DHT22;7175;51.978;5.330;2022-11-20T05:43:56;-3.00;99.90
14188;DHT22;7175;51.978;5.330;2022-11-20T05:46:24;-3.10;99.90
14188;DHT22;7175;51.978;5.330;2022-11-20T05:48:56;-3.10;99.90
14188;DHT22;7175;51.978;5.330;2022-11-20T05:51:26;-3.00;99.90
14188;DHT22;7175;51.978;5.330;2022-11-20T05:53:56;-3.10;99.90
14188;DHT22;7175;51.978;5.330;2022-11-20T05:56:24;-3.00;99.90
14188;DHT22;7175;51.978;5.330;2022-11-20T05:58:53;-3.00;99.90
14188;DHT22;7175;51.978;5.330;2022-11-20T06:01:22;-3.10;99.90
14188;DHT22;7175;51.978;5.330;2022-11-20T06:03:52;-3.10;99.90
14188;DHT22;7175;51.978;5.330;2022-11-20T06:06:20;-3.00;99.90
14188;DHT22;7175;51.978;5.330;2022-11-20T06:08:49;-3.10;99.90
14188;DHT22;7175;51.978;5.330;2022-11-20T06:11:18;-3.10;99.90
14188;DHT22;7175;51.978;5.330;2022-11-20T06:13:46;-3.10;99.90
14188;DHT22;7175;51.978;5.330;2022-11-20T06:16:17;-3.30;99.90
14188;DHT22;7175;51.978;5.330;2022-11-20T06:18:46;-3.20;99.90
14188;DHT22;7175;51.978;5.330;2022-11-20T06:21:15;-3.10;99.90
14188;DHT22;7175;51.978;5.330;2022-11-20T06:23:44;-3.20;99.90
14188;DHT22;7175;51.978;5.330;2022-11-20T06:26:15;-3.10;99.90
14188;DHT22;7175;51.978;5.330;2022-11-20T06:28:43;-3.20;99.90
14188;DHT22;7175;51.978;5.330;2022-11-20T06:31:13;-3.20;99.90
14188;DHT22;7175;51.978;5.330;2022-11-20T06:33:42;-3.10;99.90
14188;DHT22;7175;51.978;5.330;2022-11-20T06:36:12;-3.00;99.90
14188;DHT22;7175;51.978;5.330;2022-11-20T06:38:41;-3.00;99.90
14188;DHT22;7175;51.978;5.330;2022-11-20T06:41:11;-3.00;99.90
14188;DHT22;7175;51.978;5.330;2022-11-20T06:43:41;-3.00;99.90
14188;DHT22;7175;51.978;5.330;2022-11-20T06:46:10;-3.00;99.90
14188;DHT22;7175;51.978;5.330;2022-11-20T06:48:39;-3.00;99.90
14188;DHT22;7175;51.978;5.330;2022-11-20T06:51:08;-3.00;99.90
14188;DHT22;7175;51.978;5.330;2022-11-20T06:53:36;-3.00;99.90
14188;DHT22;7175;51.978;5.330;2022-11-20T06:56:05;-2.90;99.90
14188;DHT22;7175;51.978;5.330;2022-11-20T06:58:35;-3.00;99.90
14188;DHT22;7175;51.978;5.330;2022-11-20T07:01:06;-3.10;99.90
14188;DHT22;7175;51.978;5.330;2022-11-20T07:03:35;-3.10;99.90
14188;DHT22;7175;51.978;5.330;2022-11-20T07:06:04;-3.10;99.90
14188;DHT22;7175;51.978;5.330;2022-11-20T07:08:33;-3.10;99.90
14188;DHT22;7175;51.978;5.330;2022-11-20T07:11:02;-3.20;99.90
14188;DHT22;7175;51.978;5.330;2022-11-20T07:13:32;-3.10;99.90
14188;DHT22;7175;51.978;5.330;2022-11-20T07:16:00;-3.10;99.90
14188;DHT22;7175;51.978;5.330;2022-11-20T07:18:30;-3.10;99.90
14188;DHT22;7175;51.978;5.330;2022-11-20T07:21:00;-3.20;99.90
14188;DHT22;7175;51.978;5.330;2022-11-20T07:23:28;-3.10;99.90
14188;DHT22;7175;51.978;5.330;2022-11-20T07:25:56;-3.10;99.90
14188;DHT22;7175;51.978;5.330;2022-11-20T07:28:25;-3.00;99.90
14188;DHT22;7175;51.978;5.330;2022-11-20T07:30:53;-3.00;99.90
14188;DHT22;7175;51.978;5.330;2022-11-20T07:33:21;-2.90;99.90
14188;DHT22;7175;51.978;5.330;2022-11-20T07:35:51;-2.90;99.90
14188;DHT22;7175;51.978;5.330;2022-11-20T07:38:19;-2.90;99.90
14188;DHT22;7175;51.978;5.330;2022-11-20T07:40:47;-2.80;99.90
14188;DHT22;7175;51.978;5.330;2022-11-20T07:43:16;-2.70;99.90
14188;DHT22;7175;51.978;5.330;2022-11-20T07:45:44;-2.70;99.90
14188;DHT22;7175;51.978;5.330;2022-11-20T07:48:12;-2.60;99.90
14188;DHT22;7175;51.978;5.330;2022-11-20T07:50:40;-2.60;99.90
14188;DHT22;7175;51.978;5.330;2022-11-20T07:53:09;-2.60;99.90
14188;DHT22;7175;51.978;5.330;2022-11-20T07:55:39;-2.50;99.90
14188;DHT22;7175;51.978;5.330;2022-11-20T07:58:07;-2.40;99.90
14188;DHT22;7175;51.978;5.330;2022-11-20T08:00:35;-2.30;99.90
14188;DHT22;7175;51.978;5.330;2022-11-20T08:03:05;-2.20;99.90
14188;DHT22;7175;51.978;5.330;2022-11-20T08:05:33;-2.10;99.90
14188;DHT22;7175;51.978;5.330;2022-11-20T08:08:01;-2.00;99.90
14188;DHT22;7175;51.978;5.330;2022-11-20T08:10:31;-1.80;99.90
14188;DHT22;7175;51.978;5.330;2022-11-20T08:12:59;-1.70;99.90
14188;DHT22;7175;51.978;5.330;2022-11-20T08:15:48;-1.60;99.90
14188;DHT22;7175;51.978;5.330;2022-11-20T08:18:18;-1.40;99.90
14188;DHT22;7175;51.978;5.330;2022-11-20T08:21:02;-1.30;99.90
14188;DHT22;7175;51.978;5.330;2022-11-20T08:23:31;-1.10;99.90
14188;DHT22;7175;51.978;5.330;2022-11-20T08:26:01;-1.10;99.90
14188;DHT22;7175;51.978;5.330;2022-11-20T08:28:29;-1.00;99.90
14188;DHT22;7175;51.978;5.330;2022-11-20T08:31:01;-1.00;99.90
14188;DHT22;7175;51.978;5.330;2022-11-20T08:33:29;-1.00;99.90
14188;DHT22;7175;51.978;5.330;2022-11-20T08:36:00;-0.90;99.90
14188;DHT22;7175;51.978;5.330;2022-11-20T08:38:29;-0.90;99.90
14188;DHT22;7175;51.978;5.330;2022-11-20T08:40:57;-0.80;99.90
14188;DHT22;7175;51.978;5.330;2022-11-20T08:43:44;-0.70;99.90
14188;DHT22;7175;51.978;5.330;2022-11-20T08:46:13;-0.70;99.90
14188;DHT22;7175;51.978;5.330;2022-11-20T08:48:41;-0.60;99.90
14188;DHT22;7175;51.978;5.330;2022-11-20T08:51:10;-0.50;99.90
14188;DHT22;7175;51.978;5.330;2022-11-20T08:53:38;-0.50;99.90
14188;DHT22;7175;51.978;5.330;2022-11-20T08:56:07;-0.40;99.90
14188;DHT22;7175;51.978;5.330;2022-11-20T08:58:36;-0.30;99.90
14188;DHT22;7175;51.978;5.330;2022-11-20T09:01:27;-0.30;99.90
14188;DHT22;7175;51.978;5.330;2022-11-20T09:03:56;-0.30;99.90
14188;DHT22;7175;51.978;5.330;2022-11-20T09:06:24;-0.20;99.90
14188;DHT22;7175;51.978;5.330;2022-11-20T09:08:52;-0.10;99.90
14188;DHT22;7175;51.978;5.330;2022-11-20T09:11:21;-0.10;99.90
14188;DHT22;7175;51.978;5.330;2022-11-20T09:13:49;0.00;99.90
14188;DHT22;7175;51.978;5.330;2022-11-20T09:16:17;-0.10;99.90
14188;DHT22;7175;51.978;5.330;2022-11-20T09:18:49;0.00;99.90
14188;DHT22;7175;51.978;5.330;2022-11-20T09:21:38;0.00;99.90
14188;DHT22;7175;51.978;5.330;2022-11-20T09:24:06;0.20;99.90
14188;DHT22;7175;51.978;5.330;2022-11-20T09:26:34;0.20;99.90
14188;DHT22;7175;51.978;5.330;2022-11-20T09:29:03;0.30;99.90
14188;DHT22;7175;51.978;5.330;2022-11-20T09:31:31;0.30;99.90
14188;DHT22;7175;51.978;5.330;2022-11-20T09:34:01;0.40;99.90
14188;DHT22;7175;51.978;5.330;2022-11-20T09:36:29;0.40;99.90
14188;DHT22;7175;51.978;5.330;2022-11-20T09:38:57;0.50;99.90
14188;DHT22;7175;51.978;5.330;2022-11-20T09:41:38;0.50;99.90
14188;DHT22;7175;51.978;5.330;2022-11-20T09:44:15;0.60;99.90
14188;DHT22;7175;51.978;5.330;2022-11-20T09:46:53;0.70;99.90
14188;DHT22;7175;51.978;5.330;2022-11-20T09:49:28;0.80;99.90
14188;DHT22;7175;51.978;5.330;2022-11-20T09:52:10;0.90;99.90
14188;DHT22;7175;51.978;5.330;2022-11-20T09:54:42;1.00;99.90
14188;DHT22;7175;51.978;5.330;2022-11-20T09:57:12;1.10;99.90
14188;DHT22;7175;51.978;5.330;2022-11-20T09:59:43;1.00;99.90
14188;DHT22;7175;51.978;5.330;2022-11-20T10:02:25;1.10;99.90
14188;DHT22;7175;51.978;5.330;2022-11-20T10:05:00;1.10;99.90
14188;DHT22;7175;51.978;5.330;2022-11-20T10:07:37;1.10;99.90
14188;DHT22;7175;51.978;5.330;2022-11-20T10:10:15;1.20;99.90
14188;DHT22;7175;51.978;5.330;2022-11-20T10:12:58;1.20;99.90
14188;DHT22;7175;51.978;5.330;2022-11-20T10:15:34;1.20;99.90
14188;DHT22;7175;51.978;5.330;2022-11-20T10:18:18;1.30;99.90
14188;DHT22;7175;51.978;5.330;2022-11-20T10:20:58;1.30;99.90
14188;DHT22;7175;51.978;5.330;2022-11-20T10:23:40;1.40;99.90
14188;DHT22;7175;51.978;5.330;2022-11-20T10:26:19;1.40;99.90
14188;DHT22;7175;51.978;5.330;2022-11-20T10:29:01;1.50;99.90
14188;DHT22;7175;51.978;5.330;2022-11-20T10:31:36;1.50;99.90
14188;DHT22;7175;51.978;5.330;2022-11-20T10:34:07;1.60;99.90
14188;DHT22;7175;51.978;5.330;2022-11-20T10:36:54;1.60;99.90
14188;DHT22;7175;51.978;5.330;2022-11-20T10:39:31;1.70;99.90
14188;DHT22;7175;51.978;5.330;2022-11-20T10:42:02;1.70;99.90
14188;DHT22;7175;51.978;5.330;2022-11-20T10:44:33;1.80;99.90
14188;DHT22;7175;51.978;5.330;2022-11-20T10:47:22;1.90;99.90
14188;DHT22;7175;51.978;5.330;2022-11-20T10:49:53;2.00;99.90
14188;DHT22;7175;51.978;5.330;2022-11-20T10:52:28;1.90;99.90
14188;DHT22;7175;51.978;5.330;2022-11-20T10:55:09;2.00;99.90
14188;DHT22;7175;51.978;5.330;2022-11-20T10:57:51;2.00;99.90
14188;DHT22;7175;51.978;5.330;2022-11-20T11:00:21;2.00;99.90
14188;DHT22;7175;51.978;5.330;2022-11-20T11:02:51;2.10;99.90
14188;DHT22;7175;51.978;5.330;2022-11-20T11:05:32;2.10;99.90
14188;DHT22;7175;51.978;5.330;2022-11-20T11:08:07;2.20;99.90
14188;DHT22;7175;51.978;5.330;2022-11-20T11:10:44;2.30;99.90
14188;DHT22;7175;51.978;5.330;2022-11-20T11:13:22;2.40;99.90
14188;DHT22;7175;51.978;5.330;2022-11-20T11:15:51;2.40;99.90
14188;DHT22;7175;51.978;5.330;2022-11-20T11:18:24;2.40;99.90
14188;DHT22;7175;51.978;5.330;2022-11-20T11:20:54;2.40;99.90
14188;DHT22;7175;51.978;5.330;2022-11-20T11:23:32;2.40;99.90
14188;DHT22;7175;51.978;5.330;2022-11-20T11:26:03;2.40;99.90
14188;DHT22;7175;51.978;5.330;2022-11-20T11:28:32;2.50;99.90
14188;DHT22;7175;51.978;5.330;2022-11-20T11:31:01;2.50;99.90
14188;DHT22;7175;51.978;5.330;2022-11-20T11:33:32;2.50;99.90
14188;DHT22;7175;51.978;5.330;2022-11-20T11:36:03;2.50;99.90
14188;DHT22;7175;51.978;5.330;2022-11-20T11:38:35;2.50;99.90
14188;DHT22;7175;51.978;5.330;2022-11-20T11:41:07;2.50;99.90
14188;DHT22;7175;51.978;5.330;2022-11-20T11:43:38;2.40;99.90
14188;DHT22;7175;51.978;5.330;2022-11-20T11:46:30;2.40;99.90
14188;DHT22;7175;51.978;5.330;2022-11-20T11:49:00;2.40;99.90
14188;DHT22;7175;51.978;5.330;2022-11-20T11:51:35;2.40;99.90
14188;DHT22;7175;51.978;5.330;2022-11-20T11:54:16;2.50;99.90
14188;DHT22;7175;51.978;5.330;2022-11-20T11:56:47;2.60;99.90
14188;DHT22;7175;51.978;5.330;2022-11-20T11:59:23;2.60;99.90
14188;DHT22;7175;51.978;5.330;2022-11-20T12:01:57;2.60;99.90
14188;DHT22;7175;51.978;5.330;2022-11-20T12:04:40;2.60;99.90
14188;DHT22;7175;51.978;5.330;2022-11-20T12:07:14;2.70;99.90
14188;DHT22;7175;51.978;5.330;2022-11-20T12:10:15;2.70;99.90
14188;DHT22;7175;51.978;5.330;2022-11-20T12:12:48;2.70;99.90
14188;DHT22;7175;51.978;5.330;2022-11-20T12:15:26;2.80;99.90
14188;DHT22;7175;51.978;5.330;2022-11-20T12:17:57;2.80;99.90
14188;DHT22;7175;51.978;5.330;2022-11-20T12:20:30;2.90;99.90
14188;DHT22;7175;51.978;5.330;2022-11-20T12:23:05;2.90;99.90
14188;DHT22;7175;51.978;5.330;2022-11-20T12:25:39;2.90;99.90
14188;DHT22;7175;51.978;5.330;2022-11-20T12:28:22;2.90;99.90
14188;DHT22;7175;51.978;5.330;2022-11-20T12:33:58;3.00;99.90
14188;DHT22;7175;51.978;5.330;2022-11-20T12:36:38;3.00;99.90
14188;DHT22;7175;51.978;5.330;2022-11-20T12:42:20;3.00;99.90
14188;DHT22;7175;51.978;5.330;2022-11-20T12:45:18;3.00;99.90
14188;DHT22;7175;51.978;5.330;2022-11-20T12:48:19;2.90;99.90
14188;DHT22;7175;51.978;5.330;2022-11-20T12:51:04;3.00;99.90
14188;DHT22;7175;51.978;5.330;2022-11-20T12:53:51;3.00;99.90
14188;DHT22;7175;51.978;5.330;2022-11-20T12:56:30;3.00;99.90
14188;DHT22;7175;51.978;5.330;2022-11-20T12:59:16;3.00;99.90
14188;DHT22;7175;51.978;5.330;2022-11-20T13:01:53;3.00;99.90
14188;DHT22;7175;51.978;5.330;2022-11-20T13:07:28;3.20;99.90
14188;DHT22;7175;51.978;5.330;2022-11-20T13:09:59;3.20;99.90
14188;DHT22;7175;51.978;5.330;2022-11-20T13:12:33;3.10;99.90
14188;DHT22;7175;51.978;5.330;2022-11-20T13:15:08;3.20;99.90
14188;DHT22;7175;51.978;5.330;2022-11-20T13:17:47;3.20;99.90
14188;DHT22;7175;51.978;5.330;2022-11-20T13:20:18;3.10;99.90
14188;DHT22;7175;51.978;5.330;2022-11-20T13:22:48;3.10;99.90
14188;DHT22;7175;51.978;5.330;2022-11-20T13:25:25;3.10;99.90
14188;DHT22;7175;51.978;5.330;2022-11-20T13:27:56;3.00;99.90
14188;DHT22;7175;51.978;5.330;2022-11-20T13:30:27;3.10;99.90
14188;DHT22;7175;51.978;5.330;2022-11-20T13:32:57;3.10;99.90
14188;DHT22;7175;51.978;5.330;2022-11-20T13:35:30;3.10;99.90
14188;DHT22;7175;51.978;5.330;2022-11-20T13:38:02;3.10;99.90
14188;DHT22;7175;51.978;5.330;2022-11-20T13:40:30;3.10;99.90
14188;DHT22;7175;51.978;5.330;2022-11-20T13:43:10;3.10;99.90
14188;DHT22;7175;51.978;5.330;2022-11-20T13:45:55;3.20;99.90
14188;DHT22;7175;51.978;5.330;2022-11-20T13:48:26;3.20;99.90
14188;DHT22;7175;51.978;5.330;2022-11-20T13:51:11;3.10;99.90
14188;DHT22;7175;51.978;5.330;2022-11-20T13:54:02;3.20;99.90
14188;DHT22;7175;51.978;5.330;2022-11-20T13:56:43;3.20;99.90
14188;DHT22;7175;51.978;5.330;2022-11-20T13:59:28;3.30;99.90
14188;DHT22;7175;51.978;5.330;2022-11-20T14:02:02;3.20;99.90
14188;DHT22;7175;51.978;5.330;2022-11-20T14:04:36;3.20;99.90
14188;DHT22;7175;51.978;5.330;2022-11-20T14:07:06;3.20;99.90
14188;DHT22;7175;51.978;5.330;2022-11-20T14:09:35;3.20;99.90
14188;DHT22;7175;51.978;5.330;2022-11-20T14:12:14;3.30;99.90
14188;DHT22;7175;51.978;5.330;2022-11-20T14:14:48;3.20;99.90
14188;DHT22;7175;51.978;5.330;2022-11-20T14:17:21;3.20;99.90
14188;DHT22;7175;51.978;5.330;2022-11-20T14:19:52;3.20;99.90
14188;DHT22;7175;51.978;5.330;2022-11-20T14:22:23;3.30;99.90
14188;DHT22;7175;51.978;5.330;2022-11-20T14:25:03;3.30;99.90
14188;DHT22;7175;51.978;5.330;2022-11-20T14:27:34;3.30;99.90
14188;DHT22;7175;51.978;5.330;2022-11-20T14:30:05;3.20;99.90
14188;DHT22;7175;51.978;5.330;2022-11-20T14:32:35;3.30;99.90
14188;DHT22;7175;51.978;5.330;2022-11-20T14:35:08;3.30;99.90
14188;DHT22;7175;51.978;5.330;2022-11-20T14:37:39;3.30;99.90
14188;DHT22;7175;51.978;5.330;2022-11-20T14:40:23;3.30;99.90
14188;DHT22;7175;51.978;5.330;2022-11-20T14:42:53;3.20;99.90
14188;DHT22;7175;51.978;5.330;2022-11-20T14:45:22;3.20;99.90
14188;DHT22;7175;51.978;5.330;2022-11-20T14:47:54;3.30;99.90
14188;DHT22;7175;51.978;5.330;2022-11-20T14:50:27;3.30;99.90
14188;DHT22;7175;51.978;5.330;2022-11-20T14:52:58;3.30;99.90
14188;DHT22;7175;51.978;5.330;2022-11-20T14:55:29;3.30;99.90
14188;DHT22;7175;51.978;5.330;2022-11-20T14:57:59;3.30;99.90
14188;DHT22;7175;51.978;5.330;2022-11-20T15:00:29;3.30;99.90
14188;DHT22;7175;51.978;5.330;2022-11-20T15:02:59;3.30;99.90
14188;DHT22;7175;51.978;5.330;2022-11-20T15:05:44;3.20;99.90
14188;DHT22;7175;51.978;5.330;2022-11-20T15:08:14;3.20;99.90
14188;DHT22;7175;51.978;5.330;2022-11-20T15:10:47;3.30;99.90
14188;DHT22;7175;51.978;5.330;2022-11-20T15:13:22;3.30;99.90
14188;DHT22;7175;51.978;5.330;2022-11-20T15:15:54;3.30;99.90
14188;DHT22;7175;51.978;5.330;2022-11-20T15:18:28;3.20;99.90
14188;DHT22;7175;51.978;5.330;2022-11-20T15:20:58;3.30;99.90
14188;DHT22;7175;51.978;5.330;2022-11-20T15:23:29;3.20;99.90
14188;DHT22;7175;51.978;5.330;2022-11-20T15:25:58;3.20;99.90
14188;DHT22;7175;51.978;5.330;2022-11-20T15:28:30;3.20;99.90
14188;DHT22;7175;51.978;5.330;2022-11-20T15:30:58;3.20;99.90
14188;DHT22;7175;51.978;5.330;2022-11-20T15:33:28;3.20;99.90
14188;DHT22;7175;51.978;5.330;2022-11-20T15:35:56;3.10;99.90
14188;DHT22;7175;51.978;5.330;2022-11-20T15:38:25;3.10;99.90
14188;DHT22;7175;51.978;5.330;2022-11-20T15:40:53;3.20;99.90
14188;DHT22;7175;51.978;5.330;2022-11-20T15:43:21;3.30;99.90
14188;DHT22;7175;51.978;5.330;2022-11-20T15:45:53;3.30;99.90
14188;DHT22;7175;51.978;5.330;2022-11-20T15:48:29;3.40;99.90
14188;DHT22;7175;51.978;5.330;2022-11-20T15:51:01;3.40;99.90
14188;DHT22;7175;51.978;5.330;2022-11-20T15:53:31;3.40;99.90
14188;DHT22;7175;51.978;5.330;2022-11-20T15:55:59;3.40;99.90
14188;DHT22;7175;51.978;5.330;2022-11-20T15:58:28;3.40;99.90
14188;DHT22;7175;51.978;5.330;2022-11-20T16:00:57;3.40;99.90
14188;DHT22;7175;51.978;5.330;2022-11-20T16:03:25;3.40;99.90
14188;DHT22;7175;51.978;5.330;2022-11-20T16:05:56;3.50;99.90
14188;DHT22;7175;51.978;5.330;2022-11-20T16:08:24;3.40;99.90
14188;DHT22;7175;51.978;5.330;2022-11-20T16:10:53;3.50;99.90
14188;DHT22;7175;51.978;5.330;2022-11-20T16:13:21;3.50;99.90
14188;DHT22;7175;51.978;5.330;2022-11-20T16:16:19;3.50;99.90
14188;DHT22;7175;51.978;5.330;2022-11-20T16:18:48;3.60;99.90
14188;DHT22;7175;51.978;5.330;2022-11-20T16:21:18;3.60;99.90
14188;DHT22;7175;51.978;5.330;2022-11-20T16:23:46;3.60;99.90
14188;DHT22;7175;51.978;5.330;2022-11-20T16:26:16;3.60;99.90
14188;DHT22;7175;51.978;5.330;2022-11-20T16:28:46;3.70;99.90
14188;DHT22;7175;51.978;5.330;2022-11-20T16:31:16;3.60;99.90